createdAt,value
2022-08-17T00:01:03.445Z,23.41
2022-08-17T00:06:00.360Z,22.94
2022-08-17T00:10:54.865Z,23.01
2022-08-17T00:15:49.004Z,23.24
2022-08-17T00:20:43.890Z,23.85
2022-08-17T00:25:37.721Z,22.68
2022-08-17T00:30:52.780Z,22.52
2022-08-17T00:35:50.541Z,22.47
2022-08-17T00:40:47.910Z,22.26
2022-08-17T00:45:41.956Z,23.68
2022-08-17T00:50:40.099Z,23.04
2022-08-17T00:55:35.141Z,23.57
2022-08-17T01:00:30.550Z,24.08
2022-08-17T01:05:28.589Z,23.05
2022-08-17T01:10:58.301Z,23.56
2022-08-17T01:15:51.034Z,24.79
2022-08-17T01:20:50.875Z,24.89
2022-08-17T01:25:46.031Z,24.88
2022-08-17T01:30:57.160Z,24.68
2022-08-17T01:35:55.528Z,24.64
2022-08-17T01:40:57.456Z,23.53
2022-08-17T01:46:03.591Z,24.55
2022-08-17T01:50:57.953Z,24.74
2022-08-17T01:55:55.355Z,23.67
2022-08-17T02:01:00.746Z,23.67
2022-08-17T02:05:58.678Z,24.47
2022-08-17T02:10:59.629Z,24.39
2022-08-17T02:16:07.774Z,24.44
2022-08-17T02:21:02.863Z,23.45
2022-08-17T02:25:59.540Z,24.54
2022-08-17T02:31:01.615Z,24.18
2022-08-17T02:35:58.022Z,24.70
2022-08-17T02:40:57.211Z,24.84
2022-08-17T02:45:52.855Z,24.88
2022-08-17T02:50:46.517Z,23.86
2022-08-17T02:55:42.354Z,23.96
2022-08-17T03:00:42.480Z,24.49
2022-08-17T03:05:39.472Z,24.45
2022-08-17T03:10:35.959Z,24.69
2022-08-17T03:15:31.725Z,22.89
2022-08-17T03:20:29.714Z,23.10
2022-08-17T03:25:27.850Z,22.66
2022-08-17T03:30:23.718Z,23.83
2022-08-17T03:35:24.458Z,22.43
2022-08-17T03:40:34.626Z,22.43
2022-08-17T03:45:56.574Z,23.26
2022-08-17T03:51:11.435Z,22.99
2022-08-17T03:56:25.623Z,22.67
2022-08-17T04:01:20.577Z,21.77
2022-08-17T04:06:14.640Z,22.03
2022-08-17T04:11:12.259Z,21.93
2022-08-17T04:16:06.823Z,22.40
2022-08-17T04:21:01.835Z,22.75
2022-08-17T04:25:57.885Z,22.89
2022-08-17T04:30:54.028Z,23.21
2022-08-17T04:35:55.601Z,23.24
2022-08-17T04:41:09.653Z,22.81
2022-08-17T04:46:08.397Z,23.41
2022-08-17T04:51:15.977Z,22.38
2022-08-17T04:56:18.121Z,23.40
2022-08-17T05:06:22.714Z,22.68
2022-08-17T05:11:23.798Z,24.46
2022-08-17T05:16:27.565Z,23.33
2022-08-17T05:21:37.783Z,25.06
2022-08-17T05:26:38.282Z,24.13
2022-08-17T05:31:33.052Z,24.47
2022-08-17T05:42:32.868Z,25.77
2022-08-17T05:48:05.883Z,25.45
2022-08-17T05:53:42.929Z,25.26
2022-08-17T06:05:26.585Z,25.20
2022-08-17T06:16:47.823Z,26.46
2022-08-17T06:21:48.239Z,26.26
2022-08-17T06:26:46.634Z,26.86
2022-08-17T06:32:02.673Z,26.25
2022-08-17T06:37:08.025Z,27.07
2022-08-17T06:43:02.437Z,26.57
2022-08-17T06:48:15.478Z,27.69
2022-08-17T07:25:49.697Z,28.32
2022-08-17T07:31:21.300Z,28.02
2022-08-17T07:36:43.876Z,29.05
2022-08-17T08:07:53.663Z,28.84
2022-08-17T08:13:28.262Z,30.38
2022-08-17T08:18:53.803Z,29.58
2022-08-17T08:24:18.153Z,29.62
2022-08-17T08:29:28.296Z,31.41
2022-08-17T08:34:59.002Z,31.59
2022-08-17T08:41:19.097Z,32.16
2022-08-17T08:46:43.151Z,33.62
2022-08-17T08:59:58.618Z,35.76
2022-08-17T09:05:15.666Z,36.18
2022-08-17T09:10:38.483Z,36.18
2022-08-17T09:15:56.175Z,36.10
2022-08-17T09:21:15.280Z,36.84
2022-08-17T09:26:46.990Z,36.49
2022-08-17T09:31:55.431Z,36.10
2022-08-17T09:37:02.543Z,35.78
2022-08-17T09:43:17.816Z,35.31
2022-08-17T09:48:27.772Z,35.70
2022-08-17T09:59:47.873Z,35.23
2022-08-17T10:05:52.346Z,36.12
2022-08-17T10:11:06.906Z,35.13
2022-08-17T10:22:14.727Z,36.34
2022-08-17T10:33:56.883Z,35.51
2022-08-17T10:59:04.540Z,38.60
2022-08-17T11:01:13.874Z,36.53
2022-08-17T11:14:12.604Z,39.75
2022-08-17T11:17:50.892Z,40.93
2022-08-17T11:23:28.299Z,41.42
2022-08-17T11:28:45.765Z,41.25
2022-08-17T11:34:06.695Z,41.28
2022-08-17T11:40:25.086Z,41.93
2022-08-17T11:46:29.628Z,42.19
2022-08-17T11:52:05.449Z,42.69
2022-08-17T12:03:58.068Z,43.31
2022-08-17T12:10:40.341Z,43.55
2022-08-17T12:16:22.420Z,44.75
2022-08-17T12:29:59.221Z,44.31
2022-08-17T12:36:15.143Z,44.88
2022-08-17T12:53:08.604Z,44.74
2022-08-17T13:23:12.009Z,44.98
2022-08-17T13:28:45.651Z,45.25
2022-08-17T13:47:50.805Z,45.92
2022-08-17T13:52:54.350Z,45.35
2022-08-17T13:58:06.475Z,43.63
2022-08-17T14:09:22.687Z,40.20
2022-08-17T14:14:18.958Z,38.84
2022-08-17T14:19:16.419Z,37.46
2022-08-17T14:30:22.542Z,37.31
2022-08-17T14:35:29.039Z,39.03
2022-08-17T14:41:06.157Z,39.07
2022-08-17T14:46:07.005Z,40.63
2022-08-17T14:51:56.564Z,41.68
2022-08-17T15:02:11.606Z,41.71
2022-08-17T15:49:59.885Z,36.14
2022-08-17T15:55:48.145Z,34.73
2022-08-17T16:14:40.359Z,33.53
2022-08-17T16:19:34.982Z,34.43
2022-08-17T16:24:28.609Z,34.15
2022-08-17T16:29:22.295Z,33.11
2022-08-17T16:34:21.055Z,33.65
2022-08-17T16:39:17.192Z,32.59
2022-08-17T16:44:18.614Z,32.82
2022-08-17T16:49:13.742Z,33.15
2022-08-17T16:54:29.578Z,32.57
2022-08-17T16:59:30.925Z,31.94
2022-08-17T17:11:30.403Z,32.52
2022-08-17T17:16:50.830Z,33.15
2022-08-17T17:28:25.921Z,31.58
2022-08-17T17:33:32.860Z,31.95
2022-08-17T17:38:54.523Z,31.22
2022-08-17T17:49:14.394Z,30.91
2022-08-17T17:54:18.506Z,30.37
2022-08-17T17:59:25.017Z,31.34
2022-08-17T18:04:41.556Z,30.26
2022-08-17T18:09:53.762Z,31.05
2022-08-17T18:15:31.501Z,30.58
2022-08-17T18:20:35.925Z,30.28
2022-08-17T18:25:50.478Z,29.27
2022-08-17T18:32:25.689Z,28.98
2022-08-17T18:36:56.824Z,30.28
2022-08-17T18:41:54.345Z,30.11
2022-08-17T18:47:09.176Z,29.28
2022-08-17T18:52:18.116Z,29.66
2022-08-17T18:57:35.258Z,29.72
2022-08-17T19:02:46.136Z,30.18
2022-08-17T19:07:47.286Z,30.11
2022-08-17T19:13:00.885Z,29.52
2022-08-17T19:18:00.774Z,29.04
2022-08-17T19:23:23.486Z,28.97
2022-08-17T19:28:25.433Z,29.95
2022-08-17T19:33:23.318Z,29.79
2022-08-17T19:38:53.332Z,28.83
2022-08-17T19:44:00.632Z,29.80
2022-08-17T19:49:07.638Z,29.46
2022-08-17T19:54:18.152Z,28.57
2022-08-17T19:59:25.460Z,29.58
2022-08-17T20:04:42.956Z,28.63
2022-08-17T20:09:52.740Z,28.98
2022-08-17T20:14:55.453Z,29.07
2022-08-17T20:20:05.077Z,28.93
2022-08-17T20:25:08.403Z,28.61
2022-08-17T20:30:10.575Z,27.68
2022-08-17T20:35:19.036Z,27.80
2022-08-17T20:40:22.624Z,27.04
2022-08-17T20:46:09.074Z,26.55
2022-08-17T20:51:19.527Z,26.97
2022-08-17T20:56:56.331Z,26.58
2022-08-17T21:02:18.770Z,26.35
2022-08-17T21:07:29.412Z,26.98
2022-08-17T21:12:43.495Z,27.30
2022-08-17T21:17:51.557Z,26.05
2022-08-17T21:23:02.721Z,27.14
2022-08-17T21:28:08.361Z,27.06
2022-08-17T21:33:21.195Z,27.04
2022-08-17T21:38:15.933Z,26.58
2022-08-17T21:43:31.922Z,27.32
2022-08-17T21:48:29.390Z,26.64
2022-08-17T21:53:32.730Z,26.39
2022-08-17T21:58:32.363Z,26.73
2022-08-17T22:03:30.270Z,26.95
2022-08-17T22:08:26.144Z,26.86
2022-08-17T22:13:29.567Z,25.78
2022-08-17T22:18:29.277Z,25.35
2022-08-17T22:23:43.323Z,26.45
2022-08-17T22:28:45.941Z,26.52
2022-08-17T22:33:45.639Z,25.29
2022-08-17T22:38:39.624Z,25.87
2022-08-17T22:43:43.699Z,25.37
2022-08-17T22:48:46.156Z,25.85
2022-08-17T22:54:04.870Z,25.96
2022-08-17T22:59:17.640Z,25.06
2022-08-17T23:04:13.432Z,25.82
2022-08-17T23:09:12.605Z,25.77
2022-08-17T23:14:06.333Z,25.71
2022-08-17T23:18:59.883Z,25.61
2022-08-17T23:23:57.127Z,25.11
2022-08-17T23:28:52.110Z,24.38
2022-08-17T23:33:47.007Z,24.44
2022-08-17T23:38:40.503Z,25.44
2022-08-17T23:43:36.480Z,25.37
2022-08-17T23:48:36.110Z,25.38
2022-08-17T23:53:32.069Z,25.03
2022-08-17T23:58:25.540Z,25.09
